createdAt,value
2018-09-22T10:12:38.246Z,20.1
2018-09-22T10:17:39.723Z,20.1
2018-09-22T10:22:40.081Z,20.5
2018-09-22T10:27:39.399Z,21
2018-09-22T10:32:38.356Z,21.5
2018-09-22T10:37:36.894Z,21.9
2018-09-22T10:42:34.987Z,22.2
2018-09-22T10:47:33.066Z,21
2018-09-22T10:52:30.086Z,22.3
2018-09-22T10:57:28.276Z,22.5
2018-09-22T11:02:25.703Z,23
2018-09-22T11:07:23.226Z,22.9
2018-09-22T11:12:20.382Z,23.1
2018-09-22T11:17:17.509Z,23.5
2018-09-22T11:22:15.324Z,23.3
2018-09-22T11:27:13.107Z,23.7
2018-09-22T11:32:10.858Z,23.5
2018-09-22T11:37:08.379Z,24
2018-09-22T11:42:05.889Z,23.9
2018-09-22T11:47:03.453Z,24.2
2018-09-22T11:52:00.698Z,23.9
2018-09-22T11:56:57.843Z,24.2
2018-09-22T12:01:54.949Z,24.3
2018-09-22T12:06:52.326Z,24.3
2018-09-22T12:11:49.011Z,24.5
2018-09-22T12:16:45.677Z,24.5
2018-09-22T12:21:42.653Z,24.3
2018-09-22T12:26:39.059Z,24.8
2018-09-22T12:31:35.449Z,24.6
2018-09-22T12:36:31.856Z,24.7
2018-09-22T12:41:28.422Z,24.7
2018-09-22T12:46:24.661Z,24.7
2018-09-22T12:51:20.886Z,24.7
2018-09-22T12:56:17.243Z,24.7
2018-09-22T13:01:13.003Z,24.7
2018-09-22T13:06:09.348Z,24.6
2018-09-22T13:11:06.016Z,24.6
2018-09-22T13:16:02.762Z,24.6
2018-09-22T13:20:59.640Z,24.3
2018-09-22T13:25:56.062Z,24.5
2018-09-22T13:30:53.040Z,24.5
2018-09-22T13:35:49.353Z,24.5
2018-09-22T13:40:45.783Z,24.4
2018-09-22T13:45:42.113Z,24.4
2018-09-22T13:50:38.467Z,24.4
2018-09-22T13:55:34.714Z,24.4
2018-09-22T14:00:31.640Z,24.3
2018-09-22T14:05:28.216Z,24.3
2018-09-22T14:10:25.365Z,24.2
2018-09-22T14:15:22.813Z,24.2
2018-09-22T14:20:19.429Z,23.8
2018-09-22T14:25:16.342Z,24.1
2018-09-22T14:30:13.163Z,24.1
2018-09-22T14:35:09.846Z,24.1
2018-09-22T14:40:06.493Z,24.1
2018-09-22T14:45:03.175Z,24.2
2018-09-22T14:49:58.644Z,24.2
2018-09-22T14:54:55.045Z,23.9
2018-09-22T14:59:51.685Z,24.3
2018-09-22T15:04:48.543Z,24.3
2018-09-22T15:09:47.474Z,24.4
2018-09-22T15:14:43.022Z,24.4
2018-09-22T15:19:39.658Z,24.5
2018-09-22T15:24:37.687Z,24.5
2018-09-22T15:27:25.322Z,25
2018-09-22T15:32:25.010Z,26.4
2018-09-22T15:37:22.555Z,26.6
2018-09-22T15:42:19.936Z,26.7
2018-09-22T15:47:18.758Z,26.8
2018-09-22T15:52:15.241Z,26.8
2018-09-22T15:57:12.256Z,26.9
2018-09-22T16:02:09.442Z,26.9
2018-09-22T16:07:06.418Z,26.9
2018-09-22T16:12:03.335Z,26.9
2018-09-22T16:17:00.410Z,26.9
2018-09-22T16:21:57.172Z,26.8
2018-09-22T16:26:55.705Z,26.8
2018-09-22T16:31:53.146Z,26.6
2018-09-22T16:36:49.641Z,26.9
2018-09-22T16:41:46.503Z,27
2018-09-22T16:46:43.302Z,27.1
2018-09-22T16:51:39.166Z,27.2
2018-09-22T16:56:36.545Z,27.2
2018-09-22T17:01:33.860Z,27.3
2018-09-22T17:06:30.625Z,26.9
2018-09-22T17:11:27.400Z,27.4
2018-09-22T17:16:24.088Z,27.4
2018-09-22T17:21:20.245Z,27.5
2018-09-22T17:26:16.903Z,27.6
2018-09-22T17:31:13.628Z,27.6
2018-09-22T17:36:10.389Z,27.6
2018-09-22T17:41:07.322Z,27.7
2018-09-22T17:46:04.319Z,27.7
2018-09-22T17:51:01.498Z,27.8
2018-09-22T17:55:58.759Z,27.8
2018-09-22T18:00:55.635Z,27.8
2018-09-22T18:05:52.228Z,27.7
2018-09-22T18:10:49.172Z,27.9
2018-09-22T18:15:45.929Z,27.9
2018-09-22T18:20:42.495Z,27.9
2018-09-22T18:25:39.442Z,27.9
2018-09-22T18:30:35.813Z,27.9
2018-09-22T18:35:32.865Z,27.2
2018-09-22T18:40:29.742Z,27.9
2018-09-22T18:45:26.412Z,27.9
2018-09-22T18:50:23.513Z,27.9
2018-09-22T18:55:20.235Z,27.9
2018-09-22T19:00:17.247Z,28
2018-09-22T19:05:14.245Z,28
2018-09-22T19:10:10.964Z,28
2018-09-22T19:15:07.738Z,28
2018-09-22T19:20:04.498Z,28
2018-09-22T19:25:00.632Z,27.7
2018-09-22T19:29:57.365Z,28
2018-09-22T19:34:54.302Z,27.9
2018-09-22T19:39:51.106Z,27.9
2018-09-22T19:44:47.881Z,27.8
2018-09-22T19:49:44.599Z,27.8
2018-09-22T19:54:41.412Z,27.7
2018-09-22T19:59:38.050Z,27.6
2018-09-22T20:04:34.698Z,27.6
2018-09-22T20:09:30.759Z,27.5
2018-09-22T20:14:27.099Z,27.6
2018-09-22T20:19:23.948Z,27.6
2018-09-22T20:24:20.797Z,27.5
2018-09-22T20:29:17.460Z,27.5
2018-09-22T20:34:13.402Z,27.5
2018-09-22T20:39:10.041Z,27.5
2018-09-22T20:44:06.856Z,27.5
2018-09-22T20:49:03.533Z,27.5
2018-09-22T20:54:00.035Z,27.5
2018-09-22T20:58:56.777Z,27.5
2018-09-22T21:03:53.525Z,27.5
2018-09-22T21:08:50.434Z,27.5
2018-09-22T21:13:47.362Z,27.5
2018-09-22T21:18:44.038Z,27.5
2018-09-22T21:23:40.465Z,27.5
2018-09-22T21:28:37.192Z,27.5
2018-09-22T21:33:33.536Z,27.4
2018-09-22T21:38:30.232Z,27.4
2018-09-22T21:43:26.797Z,27.4
2018-09-22T21:48:23.543Z,27.4
2018-09-22T21:53:20.289Z,27.4
2018-09-22T21:58:17.027Z,27.4
2018-09-22T22:03:13.835Z,27.4
2018-09-22T22:08:10.520Z,27.4
2018-09-22T22:13:06.888Z,27.4
2018-09-22T22:18:03.478Z,27.3
2018-09-22T22:23:00.203Z,27.2
2018-09-22T22:27:56.823Z,27.3
2018-09-22T22:32:53.564Z,27.3
2018-09-22T22:37:50.170Z,27.3
2018-09-22T22:42:46.739Z,27.3
2018-09-22T22:47:44.386Z,27.3
2018-09-22T22:52:49.060Z,27.3
2018-09-22T22:57:45.109Z,27.3
2018-09-22T23:02:41.651Z,27.2
2018-09-22T23:07:38.323Z,27.2
2018-09-22T23:12:34.775Z,27.2
2018-09-22T23:17:31.257Z,27.2
2018-09-22T23:22:27.904Z,27.1
2018-09-22T23:27:24.558Z,27.1
2018-09-22T23:32:21.278Z,27.1
2018-09-22T23:37:18.076Z,27.1
2018-09-22T23:42:14.706Z,27.1
2018-09-22T23:47:11.584Z,27
2018-09-22T23:52:07.771Z,27
2018-09-22T23:57:04.477Z,27
